No se requiere un especial cuidado respecto a la situación meteorológica. No hay avisos

Informes METAR

 

LEZL - Sevilla, Spain
Distancia de la estación: ENE 8km
Actualización: 02/10/2014 12:00
Despejado
Despejado
 Viento de ESE
Viento: ESE 2 km/h
Temperatura: 27°C
Índice de calor: 28°C
Rocío: 16°C
Humedad: 51%
Barómetro: 1020 hPa
Resumen: Despejado
Visibilidad: mayor de 10 km
2014/10/02 10:00 LEZL 021000Z 12001KT CAVOK 27/16 Q1020 NOSIG
LEMO - Morón, Spain
Distancia de la estación: SE 43km
Actualización: 02/10/2014 12:00
Despejado
Despejado
 Viento de E
Viento: E 7 km/h
Temperatura: 28°C
Índice de calor: 28°C
Rocío: 16°C
Humedad: 48%
Barómetro: 1020 hPa
Resumen: Despejado
Visibilidad: mayor de 10 km
2014/10/02 10:00 LEMO 021000Z 09004KT CAVOK 28/16 Q1020 NOSIG
LEJR - Jeréz, Spain
Distancia de la estación: S 71km
Actualización: 02/10/2014 12:00
Despejado
Despejado
 Viento de ESE
Viento: ESE 15 km/h
Temperatura: 29°C
Índice de calor: 30°C
Rocío: 19°C
Humedad: 55%
Barómetro: 1019 hPa
Resumen: Despejado
Visibilidad: mayor de 10 km
2014/10/02 10:00 LEJR 021000Z 12008KT 060V170 CAVOK 29/19 Q1019
 
LERT - Rota, Spain
Distancia de la estación: SSO 89km
Actualización: 02/10/2014 12:00
Despejado
Despejado
 Viento de ESE
Viento: ESE 37 km/h
Temperatura: 28°C
Índice de calor: 29°C
Rocío: 18°C
Humedad: 55%
Barómetro: 1019 hPa
Resumen: Despejado
Visibilidad: mayor de 10 km
2014/10/02 10:00 LERT 021000Z 12020KT 090V150 CAVOK 28/18 Q1019 NOSIG
LEMG - Málaga, Spain
Distancia de la estación: ESE 157km
Actualización: 02/10/2014 12:00
Parcialmente nuboso
Parcialmente nuboso
 Viento de ESE
Viento: ESE 9 km/h
Temperatura: 25°C
Rocío: 18°C
Humedad: 65%
Barómetro: 1022 hPa
Nubes: Parcialmente nuboso
Visibilidad: 10 km
Detalles de las nubes: Parcialmente nuboso 610 m
2014/10/02 10:00 LEMG 021000Z 11005KT 9999 SCT020 25/18 Q1022 NOSIG
LEBA - Córdoba, Spain
Distancia de la estación: ENE 115km
Actualización: 02/10/2014 12:00
Despejado
Despejado
 Viento de ENE
Viento: ENE 13 km/h
Temperatura: 24°C
Rocío: 16°C
Humedad: 61%
Barómetro: 1021 hPa
Resumen: Despejado
Visibilidad: mayor de 10 km
2014/10/02 10:00 LEBA 021000Z 06007KT 030V110 CAVOK 24/16 Q1021
 
LEGR - Granada, Spain
Distancia de la estación: E 198km
Actualización: 02/10/2014 12:00
Poco nuboso
Poco nuboso
 Viento de variable
Viento: variable 2 km/h
Temperatura: 23°C
Rocío: 15°C
Humedad: 61%
Barómetro: 1024 hPa
Nubes: Poco nuboso
Visibilidad: 10 km
Detalles de las nubes: Poco nuboso 2134 m
2014/10/02 10:00 LEGR 021000Z VRB01KT 9999 FEW070 23/15 Q1024
LEAM - Almería, Spain
Distancia de la estación: E 326km
Actualización: 02/10/2014 12:00
Parcialmente nuboso
Parcialmente nuboso
 Viento de NE
Viento: NE 30 km/h
Temperatura: 26°C
Rocío: 17°C
Humedad: 58%
Barómetro: 1022 hPa
Nubes: Parcialmente nuboso
Visibilidad: 10 km
Detalles de las nubes: Poco nuboso 305 m
Parcialmente nuboso 914 m
2014/10/02 10:00 LEAM 021000Z 05016KT 020V080 9999 FEW010 SCT030 26/17 Q1022
LEMD - Madrid/Barajas, Spain
Distancia de la estación: NNE 402km
Actualización: 02/10/2014 12:00
Parcialmente nuboso
Parcialmente nuboso
 Viento de S
Viento: S 6 km/h
Temperatura: 21°C
Rocío: 13°C
Humedad: 60%
Barómetro: 1026 hPa
Nubes: Parcialmente nuboso
Visibilidad: 10 km
Detalles de las nubes: Parcialmente nuboso 914 m
2014/10/02 10:00 LEMD 021000Z 17003KT 100V250 9999 SCT030 21/13 Q1026 NOSIG
 
LEVD - Valladolid, Spain
Distancia de la estación: N 492km
Actualización: 02/10/2014 12:00
Despejado
Despejado
 Viento de E
Viento: E 9 km/h
Temperatura: 17°C
Rocío: 13°C
Humedad: 77%
Barómetro: 1026 hPa
Resumen: Despejado
Visibilidad: mayor de 10 km
2014/10/02 10:00 LEVD 021000Z 08005KT CAVOK 17/13 Q1026
LEBL - Barcelona, Spain
Distancia de la estación: NE 816km
Actualización: 02/10/2014 12:00
Despejado
Despejado
 Viento de NO
Viento: NO 6 km/h
Temperatura: 25°C
Rocío: 16°C
Humedad: 57%
Barómetro: 1024 hPa
Resumen: Despejado
Visibilidad: mayor de 10 km
2014/10/02 10:00 LEBL 021000Z 31003KT 270V350 CAVOK 25/16 Q1024 NOSIG
LEVC - Valencia, Spain
Distancia de la estación: ENE 535km
Actualización: 02/10/2014 12:00
Muy nuboso
Muy nuboso
 Viento de ENE
Viento: ENE 9 km/h
Temperatura: 24°C
Rocío: 18°C
Humedad: 69%
Barómetro: 1025 hPa
Nubes: Muy nuboso
Visibilidad: 10 km
Detalles de las nubes: Muy nuboso 1219 m
2014/10/02 10:00 LEVC 021000Z 06005KT 360V110 9999 BKN040 24/18 Q1025 NOSIG